sensor_id;sensor_type;location;lat;lon;timestamp;pressure;altitude;pressure_sealevel;temperature;humidity
33795;BME280;51430;52.242;21.118;2023-12-22T00:01:28;96622.41;;;5.22;100.00
33795;BME280;51430;52.242;21.118;2023-12-22T00:03:56;96618.27;;;5.28;100.00
33795;BME280;51430;52.242;21.118;2023-12-22T00:06:26;96614.19;;;5.31;100.00
33795;BME280;51430;52.242;21.118;2023-12-22T00:08:54;96623.80;;;5.31;100.00
33795;BME280;51430;52.242;21.118;2023-12-22T00:11:22;96636.77;;;5.25;100.00
33795;BME280;51430;52.242;21.118;2023-12-22T00:13:49;96637.30;;;5.35;100.00
33795;BME280;51430;52.242;21.118;2023-12-22T00:16:17;96629.74;;;5.32;100.00
33795;BME280;51430;52.242;21.118;2023-12-22T00:18:45;96628.42;;;5.35;100.00
33795;BME280;51430;52.242;21.118;2023-12-22T00:21:13;96625.81;;;5.30;100.00
33795;BME280;51430;52.242;21.118;2023-12-22T00:23:41;96620.73;;;5.31;100.00
33795;BME280;51430;52.242;21.118;2023-12-22T00:26:09;96623.15;;;5.28;100.00
33795;BME280;51430;52.242;21.118;2023-12-22T00:28:37;96621.36;;;5.24;100.00
33795;BME280;51430;52.242;21.118;2023-12-22T00:31:05;96628.60;;;5.26;99.96
33795;BME280;51430;52.242;21.118;2023-12-22T00:33:33;96631.58;;;5.34;98.10
33795;BME280;51430;52.242;21.118;2023-12-22T00:36:01;96630.54;;;5.36;97.14
33795;BME280;51430;52.242;21.118;2023-12-22T00:38:29;96637.72;;;5.35;96.80
33795;BME280;51430;52.242;21.118;2023-12-22T00:40:58;96651.35;;;5.35;96.16
33795;BME280;51430;52.242;21.118;2023-12-22T00:43:27;96660.16;;;5.35;95.74
33795;BME280;51430;52.242;21.118;2023-12-22T00:45:55;96662.81;;;5.36;94.97
33795;BME280;51430;52.242;21.118;2023-12-22T00:48:25;96671.27;;;5.36;93.99
33795;BME280;51430;52.242;21.118;2023-12-22T00:50:53;96685.05;;;5.41;92.71
33795;BME280;51430;52.242;21.118;2023-12-22T00:53:20;96687.45;;;5.39;92.63
33795;BME280;51430;52.242;21.118;2023-12-22T00:55:49;96687.52;;;5.33;93.15
33795;BME280;51430;52.242;21.118;2023-12-22T00:58:17;96685.33;;;5.32;92.71
33795;BME280;51430;52.242;21.118;2023-12-22T01:00:45;96685.38;;;5.35;91.67
33795;BME280;51430;52.242;21.118;2023-12-22T01:03:13;96689.85;;;5.35;90.96
33795;BME280;51430;52.242;21.118;2023-12-22T01:05:41;96681.84;;;5.36;90.33
33795;BME280;51430;52.242;21.118;2023-12-22T01:08:09;96676.20;;;5.32;90.40
33795;BME280;51430;52.242;21.118;2023-12-22T01:10:37;96673.11;;;5.32;90.10
33795;BME280;51430;52.242;21.118;2023-12-22T01:13:05;96670.35;;;5.28;90.80
33795;BME280;51430;52.242;21.118;2023-12-22T01:15:33;96674.69;;;5.27;89.89
33795;BME280;51430;52.242;21.118;2023-12-22T01:18:01;96678.64;;;5.28;89.81
33795;BME280;51430;52.242;21.118;2023-12-22T01:20:29;96670.44;;;5.21;90.30
33795;BME280;51430;52.242;21.118;2023-12-22T01:22:56;96665.51;;;5.20;89.95
33795;BME280;51430;52.242;21.118;2023-12-22T01:25:24;96661.41;;;5.20;89.46
33795;BME280;51430;52.242;21.118;2023-12-22T01:27:52;96658.36;;;5.15;90.02
33795;BME280;51430;52.242;21.118;2023-12-22T01:30:20;96663.99;;;5.15;89.55
33795;BME280;51430;52.242;21.118;2023-12-22T01:32:48;96653.70;;;5.12;89.25
33795;BME280;51430;52.242;21.118;2023-12-22T01:35:16;96656.61;;;5.10;88.63
33795;BME280;51430;52.242;21.118;2023-12-22T01:37:53;96648.32;;;5.07;88.66
33795;BME280;51430;52.242;21.118;2023-12-22T01:40:24;96655.66;;;5.04;88.75
33795;BME280;51430;52.242;21.118;2023-12-22T01:42:52;96656.81;;;5.10;88.27
33795;BME280;51430;52.242;21.118;2023-12-22T01:45:21;96652.21;;;5.11;87.81
33795;BME280;51430;52.242;21.118;2023-12-22T01:47:56;96647.65;;;5.12;87.72
33795;BME280;51430;52.242;21.118;2023-12-22T01:50:26;96655.71;;;5.06;88.00
33795;BME280;51430;52.242;21.118;2023-12-22T01:52:54;96650.30;;;5.13;86.66
33795;BME280;51430;52.242;21.118;2023-12-22T01:55:22;96653.27;;;5.12;87.41
33795;BME280;51430;52.242;21.118;2023-12-22T01:57:51;96653.56;;;5.13;87.44
33795;BME280;51430;52.242;21.118;2023-12-22T02:00:19;96655.78;;;5.09;88.10
33795;BME280;51430;52.242;21.118;2023-12-22T02:02:48;96656.89;;;5.03;87.92
33795;BME280;51430;52.242;21.118;2023-12-22T02:05:17;96651.73;;;5.09;86.71
33795;BME280;51430;52.242;21.118;2023-12-22T02:07:46;96652.81;;;5.12;86.36
33795;BME280;51430;52.242;21.118;2023-12-22T02:10:16;96659.48;;;5.10;86.22
33795;BME280;51430;52.242;21.118;2023-12-22T02:12:44;96652.16;;;5.10;86.06
33795;BME280;51430;52.242;21.118;2023-12-22T02:15:12;96646.40;;;5.14;85.89
33795;BME280;51430;52.242;21.118;2023-12-22T02:17:48;96647.54;;;5.08;87.07
33795;BME280;51430;52.242;21.118;2023-12-22T02:20:19;96649.10;;;5.04;86.83
33795;BME280;51430;52.242;21.118;2023-12-22T02:22:52;96652.25;;;5.06;86.14
33795;BME280;51430;52.242;21.118;2023-12-22T02:25:20;96649.41;;;5.17;85.13
33795;BME280;51430;52.242;21.118;2023-12-22T02:27:49;96643.20;;;5.20;84.45
33795;BME280;51430;52.242;21.118;2023-12-22T02:30:32;96642.20;;;5.27;84.22
33795;BME280;51430;52.242;21.118;2023-12-22T02:33:05;96654.70;;;5.31;83.86
33795;BME280;51430;52.242;21.118;2023-12-22T02:35:36;96657.79;;;5.32;83.40
33795;BME280;51430;52.242;21.118;2023-12-22T02:38:06;96654.77;;;5.32;83.93
33795;BME280;51430;52.242;21.118;2023-12-22T02:40:36;96658.86;;;5.25;84.18
33795;BME280;51430;52.242;21.118;2023-12-22T02:43:05;96644.52;;;5.27;84.40
33795;BME280;51430;52.242;21.118;2023-12-22T02:45:35;96644.98;;;5.38;83.40
33795;BME280;51430;52.242;21.118;2023-12-22T02:48:03;96642.17;;;5.38;83.37
33795;BME280;51430;52.242;21.118;2023-12-22T02:50:32;96644.04;;;5.36;83.95
33795;BME280;51430;52.242;21.118;2023-12-22T02:53:00;96646.73;;;5.39;83.63
33795;BME280;51430;52.242;21.118;2023-12-22T02:55:28;96641.58;;;5.46;83.19
33795;BME280;51430;52.242;21.118;2023-12-22T02:57:56;96635.81;;;5.39;83.93
33795;BME280;51430;52.242;21.118;2023-12-22T03:00:23;96635.38;;;5.33;84.26
33795;BME280;51430;52.242;21.118;2023-12-22T03:02:51;96639.46;;;5.32;83.51
33795;BME280;51430;52.242;21.118;2023-12-22T03:05:19;96638.45;;;5.45;82.48
33795;BME280;51430;52.242;21.118;2023-12-22T03:07:47;96647.08;;;5.42;82.68
33795;BME280;51430;52.242;21.118;2023-12-22T03:10:15;96641.38;;;5.42;82.39
33795;BME280;51430;52.242;21.118;2023-12-22T03:12:43;96630.77;;;5.38;82.42
33795;BME280;51430;52.242;21.118;2023-12-22T03:15:11;96633.80;;;5.36;82.84
33795;BME280;51430;52.242;21.118;2023-12-22T03:17:39;96632.71;;;5.34;83.09
33795;BME280;51430;52.242;21.118;2023-12-22T03:20:07;96637.13;;;5.33;83.72
33795;BME280;51430;52.242;21.118;2023-12-22T03:22:35;96643.04;;;5.34;84.07
33795;BME280;51430;52.242;21.118;2023-12-22T03:25:04;96641.90;;;5.23;85.89
33795;BME280;51430;52.242;21.118;2023-12-22T03:27:32;96640.23;;;5.04;86.90
33795;BME280;51430;52.242;21.118;2023-12-22T03:30:01;96634.40;;;4.89;88.32
33795;BME280;51430;52.242;21.118;2023-12-22T03:32:32;96630.08;;;4.80;88.77
33795;BME280;51430;52.242;21.118;2023-12-22T03:35:00;96634.64;;;4.76;89.55
33795;BME280;51430;52.242;21.118;2023-12-22T03:37:28;96633.00;;;4.78;89.95
33795;BME280;51430;52.242;21.118;2023-12-22T03:39:56;96642.23;;;4.78;89.81
33795;BME280;51430;52.242;21.118;2023-12-22T03:42:24;96642.80;;;4.68;90.00
33795;BME280;51430;52.242;21.118;2023-12-22T03:44:53;96635.77;;;4.69;90.04
33795;BME280;51430;52.242;21.118;2023-12-22T03:47:21;96636.20;;;4.68;90.48
33795;BME280;51430;52.242;21.118;2023-12-22T03:49:49;96640.54;;;4.67;90.48
33795;BME280;51430;52.242;21.118;2023-12-22T03:52:17;96643.30;;;4.65;90.61
33795;BME280;51430;52.242;21.118;2023-12-22T03:54:45;96648.15;;;4.73;89.88
33795;BME280;51430;52.242;21.118;2023-12-22T03:57:13;96648.94;;;4.69;89.26
33795;BME280;51430;52.242;21.118;2023-12-22T03:59:41;96645.95;;;4.65;89.73
33795;BME280;51430;52.242;21.118;2023-12-22T04:02:11;96650.23;;;4.63;89.65
33795;BME280;51430;52.242;21.118;2023-12-22T04:04:39;96650.46;;;4.63;90.10
33795;BME280;51430;52.242;21.118;2023-12-22T04:07:07;96659.55;;;4.62;89.99
33795;BME280;51430;52.242;21.118;2023-12-22T04:09:37;96657.11;;;4.65;89.42
33795;BME280;51430;52.242;21.118;2023-12-22T04:12:06;96656.98;;;4.66;89.04
33795;BME280;51430;52.242;21.118;2023-12-22T04:14:34;96646.16;;;4.69;89.36
33795;BME280;51430;52.242;21.118;2023-12-22T04:17:02;96651.96;;;4.71;88.84
33795;BME280;51430;52.242;21.118;2023-12-22T04:19:30;96646.45;;;4.68;89.19
33795;BME280;51430;52.242;21.118;2023-12-22T04:21:58;96654.73;;;4.65;88.62
33795;BME280;51430;52.242;21.118;2023-12-22T04:24:26;96654.94;;;4.64;89.01
33795;BME280;51430;52.242;21.118;2023-12-22T04:26:54;96653.66;;;4.62;89.09
33795;BME280;51430;52.242;21.118;2023-12-22T04:29:22;96654.95;;;4.59;90.13
33795;BME280;51430;52.242;21.118;2023-12-22T04:31:50;96650.73;;;4.59;89.24
33795;BME280;51430;52.242;21.118;2023-12-22T04:34:18;96644.33;;;4.61;88.71
33795;BME280;51430;52.242;21.118;2023-12-22T04:36:47;96647.04;;;4.61;88.46
33795;BME280;51430;52.242;21.118;2023-12-22T04:39:15;96651.90;;;4.70;87.80
33795;BME280;51430;52.242;21.118;2023-12-22T04:41:43;96643.86;;;4.71;86.91
33795;BME280;51430;52.242;21.118;2023-12-22T04:44:11;96650.46;;;4.73;86.60
33795;BME280;51430;52.242;21.118;2023-12-22T04:46:39;96640.60;;;4.74;85.84
33795;BME280;51430;52.242;21.118;2023-12-22T04:49:07;96643.24;;;4.76;84.81
33795;BME280;51430;52.242;21.118;2023-12-22T04:51:35;96654.78;;;4.78;85.48
33795;BME280;51430;52.242;21.118;2023-12-22T04:54:03;96649.67;;;4.77;85.67
33795;BME280;51430;52.242;21.118;2023-12-22T04:56:31;96662.44;;;4.79;85.47
33795;BME280;51430;52.242;21.118;2023-12-22T04:59:00;96661.98;;;4.78;84.86
33795;BME280;51430;52.242;21.118;2023-12-22T05:01:30;96674.02;;;4.74;85.06
33795;BME280;51430;52.242;21.118;2023-12-22T05:03:58;96676.33;;;4.71;84.52
33795;BME280;51430;52.242;21.118;2023-12-22T05:06:28;96681.86;;;4.67;84.82
33795;BME280;51430;52.242;21.118;2023-12-22T05:08:58;96679.00;;;4.67;84.93
33795;BME280;51430;52.242;21.118;2023-12-22T05:11:26;96684.17;;;4.61;85.24
33795;BME280;51430;52.242;21.118;2023-12-22T05:13:54;96689.49;;;4.61;85.28
33795;BME280;51430;52.242;21.118;2023-12-22T05:16:23;96698.55;;;4.62;85.48
33795;BME280;51430;52.242;21.118;2023-12-22T05:18:51;96693.64;;;4.61;84.60
33795;BME280;51430;52.242;21.118;2023-12-22T05:21:19;96691.00;;;4.60;84.83
33795;BME280;51430;52.242;21.118;2023-12-22T05:23:47;96689.48;;;4.61;84.89
33795;BME280;51430;52.242;21.118;2023-12-22T05:26:19;96700.33;;;4.63;84.41
33795;BME280;51430;52.242;21.118;2023-12-22T05:28:48;96700.29;;;4.63;84.73
33795;BME280;51430;52.242;21.118;2023-12-22T05:31:19;96705.58;;;4.65;84.49
33795;BME280;51430;52.242;21.118;2023-12-22T05:33:47;96704.85;;;4.64;84.46
33795;BME280;51430;52.242;21.118;2023-12-22T05:36:15;96708.42;;;4.60;84.80
33795;BME280;51430;52.242;21.118;2023-12-22T05:38:43;96709.94;;;4.60;85.23
33795;BME280;51430;52.242;21.118;2023-12-22T05:41:11;96711.13;;;4.52;85.63
33795;BME280;51430;52.242;21.118;2023-12-22T05:43:39;96714.24;;;4.58;85.34
33795;BME280;51430;52.242;21.118;2023-12-22T05:46:08;96711.35;;;4.57;85.87
33795;BME280;51430;52.242;21.118;2023-12-22T05:48:37;96717.27;;;4.56;85.94
33795;BME280;51430;52.242;21.118;2023-12-22T05:51:05;96724.58;;;4.48;86.58
33795;BME280;51430;52.242;21.118;2023-12-22T05:53:35;96726.80;;;4.46;87.23
33795;BME280;51430;52.242;21.118;2023-12-22T05:56:04;96737.40;;;4.49;87.04
33795;BME280;51430;52.242;21.118;2023-12-22T05:58:32;96734.60;;;4.38;87.92
33795;BME280;51430;52.242;21.118;2023-12-22T06:01:00;96737.81;;;4.31;88.52
33795;BME280;51430;52.242;21.118;2023-12-22T06:03:28;96740.13;;;4.18;89.77
33795;BME280;51430;52.242;21.118;2023-12-22T06:05:56;96744.45;;;4.22;89.31
33795;BME280;51430;52.242;21.118;2023-12-22T06:08:24;96745.98;;;4.13;89.24
33795;BME280;51430;52.242;21.118;2023-12-22T06:10:52;96742.70;;;4.12;89.50
33795;BME280;51430;52.242;21.118;2023-12-22T06:13:20;96753.96;;;4.16;88.97
33795;BME280;51430;52.242;21.118;2023-12-22T06:15:48;96743.77;;;4.17;88.47
33795;BME280;51430;52.242;21.118;2023-12-22T06:18:16;96741.39;;;4.14;88.84
33795;BME280;51430;52.242;21.118;2023-12-22T06:20:52;96736.97;;;4.14;88.55
33795;BME280;51430;52.242;21.118;2023-12-22T06:23:20;96734.16;;;4.16;87.54
33795;BME280;51430;52.242;21.118;2023-12-22T06:32:30;96743.42;;;4.47;84.20
33795;BME280;51430;52.242;21.118;2023-12-22T06:34:58;96748.52;;;4.44;83.19
33795;BME280;51430;52.242;21.118;2023-12-22T06:37:27;96753.81;;;4.52;81.75
33795;BME280;51430;52.242;21.118;2023-12-22T06:39:55;96754.98;;;4.60;80.96
33795;BME280;51430;52.242;21.118;2023-12-22T06:42:23;96746.46;;;4.59;80.34
33795;BME280;51430;52.242;21.118;2023-12-22T06:44:51;96749.64;;;4.61;78.92
33795;BME280;51430;52.242;21.118;2023-12-22T06:47:19;96745.74;;;4.65;77.44
33795;BME280;51430;52.242;21.118;2023-12-22T06:49:46;96748.27;;;4.72;77.14
33795;BME280;51430;52.242;21.118;2023-12-22T06:52:14;96754.62;;;4.74;75.88
33795;BME280;51430;52.242;21.118;2023-12-22T06:54:42;96767.23;;;4.81;74.48
33795;BME280;51430;52.242;21.118;2023-12-22T06:57:11;96767.54;;;4.88;72.06
33795;BME280;51430;52.242;21.118;2023-12-22T06:59:41;96766.05;;;4.93;70.33
33795;BME280;51430;52.242;21.118;2023-12-22T07:02:11;96763.17;;;4.94;69.83
33795;BME280;51430;52.242;21.118;2023-12-22T07:07:49;96780.14;;;4.91;67.84
33795;BME280;51430;52.242;21.118;2023-12-22T07:10:18;96774.44;;;4.94;67.44
33795;BME280;51430;52.242;21.118;2023-12-22T07:12:46;96785.30;;;4.97;66.08
33795;BME280;51430;52.242;21.118;2023-12-22T07:15:14;96795.20;;;4.92;66.92
33795;BME280;51430;52.242;21.118;2023-12-22T07:17:42;96799.83;;;4.85;66.42
33795;BME280;51430;52.242;21.118;2023-12-22T07:20:11;96798.92;;;4.90;66.00
33795;BME280;51430;52.242;21.118;2023-12-22T07:22:40;96802.20;;;4.97;66.05
33795;BME280;51430;52.242;21.118;2023-12-22T07:25:08;96806.03;;;4.91;66.78
33795;BME280;51430;52.242;21.118;2023-12-22T07:27:36;96814.88;;;4.87;67.32
33795;BME280;51430;52.242;21.118;2023-12-22T07:30:04;96814.48;;;4.86;68.44
33795;BME280;51430;52.242;21.118;2023-12-22T07:32:34;96815.67;;;4.90;67.66
33795;BME280;51430;52.242;21.118;2023-12-22T07:35:02;96822.58;;;4.86;68.01
33795;BME280;51430;52.242;21.118;2023-12-22T07:37:30;96831.27;;;4.89;64.31
33795;BME280;51430;52.242;21.118;2023-12-22T07:39:58;96827.89;;;4.85;64.81
33795;BME280;51430;52.242;21.118;2023-12-22T07:42:26;96828.75;;;4.87;64.49
33795;BME280;51430;52.242;21.118;2023-12-22T07:44:55;96829.31;;;4.83;63.23
33795;BME280;51430;52.242;21.118;2023-12-22T07:47:24;96834.81;;;4.87;63.45
33795;BME280;51430;52.242;21.118;2023-12-22T07:49:51;96839.82;;;4.83;64.22
33795;BME280;51430;52.242;21.118;2023-12-22T07:52:20;96844.59;;;4.86;63.21
33795;BME280;51430;52.242;21.118;2023-12-22T07:54:48;96850.91;;;4.86;63.26
33795;BME280;51430;52.242;21.118;2023-12-22T07:57:16;96849.98;;;4.82;63.25
33795;BME280;51430;52.242;21.118;2023-12-22T07:59:44;96849.71;;;4.73;63.35
33795;BME280;51430;52.242;21.118;2023-12-22T08:02:12;96857.71;;;4.74;63.61
33795;BME280;51430;52.242;21.118;2023-12-22T08:04:41;96857.96;;;4.79;63.85
33795;BME280;51430;52.242;21.118;2023-12-22T08:07:09;96852.54;;;4.85;63.65
33795;BME280;51430;52.242;21.118;2023-12-22T08:09:37;96865.54;;;5.10;62.32
33795;BME280;51430;52.242;21.118;2023-12-22T08:12:06;96864.92;;;5.24;60.74
33795;BME280;51430;52.242;21.118;2023-12-22T08:14:34;96864.19;;;5.39;59.89
33795;BME280;51430;52.242;21.118;2023-12-22T08:17:02;96868.12;;;5.65;59.47
33795;BME280;51430;52.242;21.118;2023-12-22T08:19:30;96877.58;;;5.87;58.23
33795;BME280;51430;52.242;21.118;2023-12-22T08:21:59;96880.27;;;5.76;57.83
33795;BME280;51430;52.242;21.118;2023-12-22T08:24:32;96886.59;;;5.62;58.23
33795;BME280;51430;52.242;21.118;2023-12-22T08:27:00;96887.70;;;5.46;58.62
33795;BME280;51430;52.242;21.118;2023-12-22T08:29:27;96892.77;;;5.52;59.59
33795;BME280;51430;52.242;21.118;2023-12-22T08:31:55;96892.33;;;5.58;60.16
33795;BME280;51430;52.242;21.118;2023-12-22T08:34:24;96902.54;;;5.82;59.64
33795;BME280;51430;52.242;21.118;2023-12-22T08:43:03;96904.27;;;6.32;60.77
33795;BME280;51430;52.242;21.118;2023-12-22T08:45:35;96902.91;;;6.53;60.62
33795;BME280;51430;52.242;21.118;2023-12-22T08:48:04;96898.99;;;6.64;60.43
33795;BME280;51430;52.242;21.118;2023-12-22T08:50:36;96902.38;;;6.40;60.79
33795;BME280;51430;52.242;21.118;2023-12-22T08:53:05;96903.95;;;6.72;61.02
33795;BME280;51430;52.242;21.118;2023-12-22T08:55:34;96908.38;;;6.82;60.30
33795;BME280;51430;52.242;21.118;2023-12-22T08:58:02;96899.52;;;7.16;59.83
33795;BME280;51430;52.242;21.118;2023-12-22T09:00:30;96898.98;;;7.49;58.44
33795;BME280;51430;52.242;21.118;2023-12-22T09:03:00;96886.33;;;7.29;58.94
33795;BME280;51430;52.242;21.118;2023-12-22T09:11:42;96879.58;;;7.52;58.76
33795;BME280;51430;52.242;21.118;2023-12-22T09:14:13;96878.89;;;7.63;58.39
33795;BME280;51430;52.242;21.118;2023-12-22T09:16:41;96876.68;;;7.91;57.26
33795;BME280;51430;52.242;21.118;2023-12-22T09:19:11;96879.20;;;7.59;57.50
33795;BME280;51430;52.242;21.118;2023-12-22T09:21:39;96882.08;;;7.31;58.42
33795;BME280;51430;52.242;21.118;2023-12-22T09:24:07;96870.16;;;6.96;59.23
33795;BME280;51430;52.242;21.118;2023-12-22T09:26:34;96875.66;;;6.70;60.48
33795;BME280;51430;52.242;21.118;2023-12-22T09:29:03;96866.03;;;6.77;60.39
33795;BME280;51430;52.242;21.118;2023-12-22T09:31:31;96871.08;;;7.24;58.52
33795;BME280;51430;52.242;21.118;2023-12-22T09:34:02;96861.94;;;7.52;57.65
33795;BME280;51430;52.242;21.118;2023-12-22T09:36:33;96858.24;;;7.43;57.28
33795;BME280;51430;52.242;21.118;2023-12-22T09:39:01;96846.17;;;7.90;55.95
33795;BME280;51430;52.242;21.118;2023-12-22T09:41:30;96846.23;;;8.12;54.78
33795;BME280;51430;52.242;21.118;2023-12-22T09:43:59;96854.28;;;8.00;54.96
33795;BME280;51430;52.242;21.118;2023-12-22T09:46:30;96843.85;;;8.06;54.89
33795;BME280;51430;52.242;21.118;2023-12-22T09:48:58;96847.97;;;8.28;53.99
33795;BME280;51430;52.242;21.118;2023-12-22T09:51:28;96834.84;;;8.43;53.13
33795;BME280;51430;52.242;21.118;2023-12-22T09:53:58;96837.80;;;8.22;53.40
33795;BME280;51430;52.242;21.118;2023-12-22T09:56:32;96839.41;;;7.87;54.23
33795;BME280;51430;52.242;21.118;2023-12-22T09:59:01;96829.09;;;7.06;55.83
33795;BME280;51430;52.242;21.118;2023-12-22T10:01:30;96835.15;;;6.55;57.54
33795;BME280;51430;52.242;21.118;2023-12-22T10:03:59;96829.84;;;6.22;58.48
33795;BME280;51430;52.242;21.118;2023-12-22T10:06:27;96806.94;;;5.93;59.51
33795;BME280;51430;52.242;21.118;2023-12-22T10:08:55;96815.98;;;5.72;60.67
33795;BME280;51430;52.242;21.118;2023-12-22T10:11:25;96803.66;;;5.60;61.45
33795;BME280;51430;52.242;21.118;2023-12-22T10:13:55;96790.36;;;5.38;62.63
33795;BME280;51430;52.242;21.118;2023-12-22T10:16:23;96794.65;;;5.29;63.68
33795;BME280;51430;52.242;21.118;2023-12-22T10:18:51;96810.27;;;5.15;65.34
33795;BME280;51430;52.242;21.118;2023-12-22T10:21:20;96833.51;;;4.37;75.00
33795;BME280;51430;52.242;21.118;2023-12-22T10:23:48;96839.44;;;3.49;81.18
33795;BME280;51430;52.242;21.118;2023-12-22T10:26:16;96858.60;;;2.87;87.58
33795;BME280;51430;52.242;21.118;2023-12-22T10:28:47;96847.16;;;2.47;91.62
33795;BME280;51430;52.242;21.118;2023-12-22T10:31:15;96849.33;;;2.34;90.77
33795;BME280;51430;52.242;21.118;2023-12-22T10:33:43;96876.91;;;2.35;88.54
33795;BME280;51430;52.242;21.118;2023-12-22T10:36:12;96884.90;;;2.11;89.98
33795;BME280;51430;52.242;21.118;2023-12-22T10:38:40;96899.62;;;1.89;92.58
33795;BME280;51430;52.242;21.118;2023-12-22T10:41:10;96910.41;;;1.81;93.83
33795;BME280;51430;52.242;21.118;2023-12-22T10:43:39;96911.30;;;1.64;95.51
33795;BME280;51430;52.242;21.118;2023-12-22T10:46:08;96904.98;;;1.57;97.14
33795;BME280;51430;52.242;21.118;2023-12-22T10:48:40;96897.77;;;1.43;97.94
33795;BME280;51430;52.242;21.118;2023-12-22T10:51:09;96891.64;;;1.31;99.27
33795;BME280;51430;52.242;21.118;2023-12-22T10:53:42;96891.45;;;1.30;99.91
33795;BME280;51430;52.242;21.118;2023-12-22T10:56:11;96890.52;;;1.27;100.00
33795;BME280;51430;52.242;21.118;2023-12-22T10:58:39;96889.10;;;1.33;100.00
33795;BME280;51430;52.242;21.118;2023-12-22T11:01:09;96872.27;;;1.33;100.00
33795;BME280;51430;52.242;21.118;2023-12-22T11:03:40;96865.64;;;1.38;100.00
33795;BME280;51430;52.242;21.118;2023-12-22T11:06:13;96859.93;;;1.49;99.99
33795;BME280;51430;52.242;21.118;2023-12-22T11:08:46;96853.17;;;1.46;99.97
33795;BME280;51430;52.242;21.118;2023-12-22T11:11:27;96845.08;;;1.53;99.62
33795;BME280;51430;52.242;21.118;2023-12-22T11:13:57;96828.13;;;1.77;98.14
33795;BME280;51430;52.242;21.118;2023-12-22T11:16:28;96813.79;;;1.87;96.74
33795;BME280;51430;52.242;21.118;2023-12-22T11:18:56;96810.61;;;2.05;95.96
33795;BME280;51430;52.242;21.118;2023-12-22T11:21:25;96801.39;;;2.27;94.50
33795;BME280;51430;52.242;21.118;2023-12-22T11:23:54;96797.26;;;3.04;92.11
33795;BME280;51430;52.242;21.118;2023-12-22T11:26:23;96791.34;;;4.52;87.99
33795;BME280;51430;52.242;21.118;2023-12-22T11:28:54;96793.64;;;5.68;82.24
33795;BME280;51430;52.242;21.118;2023-12-22T11:31:26;96786.80;;;6.16;76.74
33795;BME280;51430;52.242;21.118;2023-12-22T11:33:55;96790.16;;;6.57;75.62
33795;BME280;51430;52.242;21.118;2023-12-22T11:36:38;96797.11;;;6.02;74.06
33795;BME280;51430;52.242;21.118;2023-12-22T11:39:06;96795.91;;;5.85;75.59
33795;BME280;51430;52.242;21.118;2023-12-22T11:41:35;96804.61;;;5.49;75.97
33795;BME280;51430;52.242;21.118;2023-12-22T11:44:05;96805.98;;;4.73;78.30
33795;BME280;51430;52.242;21.118;2023-12-22T11:46:34;96802.60;;;5.32;78.99
33795;BME280;51430;52.242;21.118;2023-12-22T11:49:02;96799.66;;;5.60;77.05
33795;BME280;51430;52.242;21.118;2023-12-22T11:51:33;96806.37;;;6.01;76.09
33795;BME280;51430;52.242;21.118;2023-12-22T11:54:43;96799.44;;;5.84;76.03
33795;BME280;51430;52.242;21.118;2023-12-22T11:59:55;96799.20;;;4.90;78.59
33795;BME280;51430;52.242;21.118;2023-12-22T12:02:23;96800.63;;;4.11;81.05
33795;BME280;51430;52.242;21.118;2023-12-22T12:04:51;96795.17;;;3.60;83.48
33795;BME280;51430;52.242;21.118;2023-12-22T12:07:56;96788.11;;;3.39;85.18
33795;BME280;51430;52.242;21.118;2023-12-22T12:15:35;96779.02;;;3.65;87.10
33795;BME280;51430;52.242;21.118;2023-12-22T12:18:07;96788.92;;;3.48;87.07
33795;BME280;51430;52.242;21.118;2023-12-22T12:20:36;96785.56;;;3.29;87.25
33795;BME280;51430;52.242;21.118;2023-12-22T12:23:04;96780.35;;;3.17;88.75
33795;BME280;51430;52.242;21.118;2023-12-22T12:25:33;96781.20;;;3.22;88.55
33795;BME280;51430;52.242;21.118;2023-12-22T12:28:07;96780.80;;;3.20;88.79
33795;BME280;51430;52.242;21.118;2023-12-22T12:30:38;96774.00;;;3.18;89.28
33795;BME280;51430;52.242;21.118;2023-12-22T12:33:07;96782.45;;;3.20;88.91
33795;BME280;51430;52.242;21.118;2023-12-22T12:35:37;96766.70;;;3.20;89.55
33795;BME280;51430;52.242;21.118;2023-12-22T12:38:10;96776.33;;;3.02;89.80
33795;BME280;51430;52.242;21.118;2023-12-22T12:40:39;96768.92;;;2.96;89.99
33795;BME280;51430;52.242;21.118;2023-12-22T12:43:09;96761.54;;;2.96;90.58
33795;BME280;51430;52.242;21.118;2023-12-22T12:45:37;96755.93;;;2.98;90.89
33795;BME280;51430;52.242;21.118;2023-12-22T12:48:06;96758.38;;;2.93;90.81
33795;BME280;51430;52.242;21.118;2023-12-22T12:50:35;96750.80;;;2.87;91.21
33795;BME280;51430;52.242;21.118;2023-12-22T12:53:05;96752.20;;;2.85;91.55
33795;BME280;51430;52.242;21.118;2023-12-22T12:55:33;96753.77;;;2.76;92.46
33795;BME280;51430;52.242;21.118;2023-12-22T12:58:01;96761.80;;;2.80;92.55
33795;BME280;51430;52.242;21.118;2023-12-22T13:00:32;96754.23;;;2.66;93.18
33795;BME280;51430;52.242;21.118;2023-12-22T13:03:02;96745.94;;;2.70;93.83
33795;BME280;51430;52.242;21.118;2023-12-22T13:05:34;96740.98;;;2.68;94.00
33795;BME280;51430;52.242;21.118;2023-12-22T13:08:10;96747.60;;;2.61;94.70
33795;BME280;51430;52.242;21.118;2023-12-22T13:10:40;96742.94;;;2.61;95.46
33795;BME280;51430;52.242;21.118;2023-12-22T13:13:09;96742.58;;;2.63;95.47
33795;BME280;51430;52.242;21.118;2023-12-22T13:15:40;96728.63;;;2.55;96.25
33795;BME280;51430;52.242;21.118;2023-12-22T13:18:09;96724.17;;;2.52;96.71
33795;BME280;51430;52.242;21.118;2023-12-22T13:20:37;96721.38;;;2.47;97.32
33795;BME280;51430;52.242;21.118;2023-12-22T13:23:05;96727.69;;;2.51;97.40
33795;BME280;51430;52.242;21.118;2023-12-22T13:25:40;96733.00;;;2.53;97.39
33795;BME280;51430;52.242;21.118;2023-12-22T13:28:08;96720.39;;;2.48;97.52
33795;BME280;51430;52.242;21.118;2023-12-22T13:30:38;96711.23;;;2.49;97.81
33795;BME280;51430;52.242;21.118;2023-12-22T13:33:09;96702.86;;;2.43;98.08
33795;BME280;51430;52.242;21.118;2023-12-22T13:35:38;96707.23;;;2.47;97.79
33795;BME280;51430;52.242;21.118;2023-12-22T13:38:09;96710.98;;;2.46;97.96
33795;BME280;51430;52.242;21.118;2023-12-22T13:40:44;96708.90;;;2.45;98.29